sensor_id;sensor_type;location;lat;lon;timestamp;P1;durP1;ratioP1;P2;durP2;ratioP2
21299;SDS011;10809;49.476;11.016;2022-11-04T00:01:42;10.57;;;6.80;;
21299;SDS011;10809;49.476;11.016;2022-11-04T00:04:15;8.80;;;5.80;;
21299;SDS011;10809;49.476;11.016;2022-11-04T00:06:47;11.93;;;6.47;;
21299;SDS011;10809;49.476;11.016;2022-11-04T00:09:28;9.67;;;6.40;;
21299;SDS011;10809;49.476;11.016;2022-11-04T00:11:59;8.50;;;6.27;;
21299;SDS011;10809;49.476;11.016;2022-11-04T00:14:48;8.30;;;5.37;;
21299;SDS011;10809;49.476;11.016;2022-11-04T00:17:18;9.07;;;6.13;;
21299;SDS011;10809;49.476;11.016;2022-11-04T00:19:51;9.50;;;6.60;;
21299;SDS011;10809;49.476;11.016;2022-11-04T00:22:41;11.57;;;6.87;;
21299;SDS011;10809;49.476;11.016;2022-11-04T00:25:38;8.13;;;5.90;;
21299;SDS011;10809;49.476;11.016;2022-11-04T00:28:27;8.77;;;6.70;;
21299;SDS011;10809;49.476;11.016;2022-11-04T00:31:13;8.23;;;6.20;;
21299;SDS011;10809;49.476;11.016;2022-11-04T00:34:02;11.27;;;6.30;;
21299;SDS011;10809;49.476;11.016;2022-11-04T00:36:32;11.80;;;6.13;;
21299;SDS011;10809;49.476;11.016;2022-11-04T00:39:03;10.37;;;6.17;;
21299;SDS011;10809;49.476;11.016;2022-11-04T00:41:34;8.57;;;6.20;;
21299;SDS011;10809;49.476;11.016;2022-11-04T00:44:04;8.50;;;5.50;;
21299;SDS011;10809;49.476;11.016;2022-11-04T00:46:34;12.33;;;5.47;;
21299;SDS011;10809;49.476;11.016;2022-11-04T00:49:05;7.27;;;5.07;;
21299;SDS011;10809;49.476;11.016;2022-11-04T00:51:35;9.63;;;4.90;;
21299;SDS011;10809;49.476;11.016;2022-11-04T00:54:06;7.27;;;4.07;;
21299;SDS011;10809;49.476;11.016;2022-11-04T00:56:36;5.50;;;4.13;;
21299;SDS011;10809;49.476;11.016;2022-11-04T00:59:07;3.93;;;3.33;;
21299;SDS011;10809;49.476;11.016;2022-11-04T01:01:37;3.80;;;3.10;;
21299;SDS011;10809;49.476;11.016;2022-11-04T01:04:08;3.23;;;2.67;;
21299;SDS011;10809;49.476;11.016;2022-11-04T01:06:39;5.33;;;3.40;;
21299;SDS011;10809;49.476;11.016;2022-11-04T01:09:10;3.57;;;2.87;;
21299;SDS011;10809;49.476;11.016;2022-11-04T01:11:41;2.80;;;2.60;;
21299;SDS011;10809;49.476;11.016;2022-11-04T01:14:12;3.67;;;2.70;;
21299;SDS011;10809;49.476;11.016;2022-11-04T01:16:43;3.00;;;2.70;;
21299;SDS011;10809;49.476;11.016;2022-11-04T01:19:13;2.70;;;2.10;;
21299;SDS011;10809;49.476;11.016;2022-11-04T01:21:43;3.37;;;2.50;;
21299;SDS011;10809;49.476;11.016;2022-11-04T01:24:14;3.57;;;2.10;;
21299;SDS011;10809;49.476;11.016;2022-11-04T01:26:44;3.93;;;2.30;;
21299;SDS011;10809;49.476;11.016;2022-11-04T01:29:15;3.50;;;2.13;;
21299;SDS011;10809;49.476;11.016;2022-11-04T01:31:45;2.60;;;2.20;;
21299;SDS011;10809;49.476;11.016;2022-11-04T01:34:15;2.13;;;1.93;;
21299;SDS011;10809;49.476;11.016;2022-11-04T01:36:46;2.07;;;1.70;;
21299;SDS011;10809;49.476;11.016;2022-11-04T01:39:16;1.60;;;1.50;;
21299;SDS011;10809;49.476;11.016;2022-11-04T01:41:47;5.03;;;1.53;;
21299;SDS011;10809;49.476;11.016;2022-11-04T01:47:16;2.13;;;1.90;;
21299;SDS011;10809;49.476;11.016;2022-11-04T01:49:54;2.00;;;1.80;;
21299;SDS011;10809;49.476;11.016;2022-11-04T01:52:36;1.17;;;1.10;;
21299;SDS011;10809;49.476;11.016;2022-11-04T01:55:15;0.97;;;0.90;;
21299;SDS011;10809;49.476;11.016;2022-11-04T01:57:53;1.60;;;1.17;;
21299;SDS011;10809;49.476;11.016;2022-11-04T02:00:27;1.63;;;1.00;;
21299;SDS011;10809;49.476;11.016;2022-11-04T02:02:58;4.47;;;1.20;;
21299;SDS011;10809;49.476;11.016;2022-11-04T02:05:33;0.83;;;0.83;;
21299;SDS011;10809;49.476;11.016;2022-11-04T02:08:04;2.73;;;1.17;;
21299;SDS011;10809;49.476;11.016;2022-11-04T02:10:35;1.00;;;0.90;;
21299;SDS011;10809;49.476;11.016;2022-11-04T02:13:10;0.97;;;0.87;;
21299;SDS011;10809;49.476;11.016;2022-11-04T02:18:20;1.10;;;1.00;;
21299;SDS011;10809;49.476;11.016;2022-11-04T02:23:50;1.10;;;0.90;;
21299;SDS011;10809;49.476;11.016;2022-11-04T02:26:41;0.53;;;0.53;;
21299;SDS011;10809;49.476;11.016;2022-11-04T02:29:36;0.97;;;0.90;;
21299;SDS011;10809;49.476;11.016;2022-11-04T02:38:17;0.50;;;0.50;;
21299;SDS011;10809;49.476;11.016;2022-11-04T02:41:16;0.93;;;0.77;;
21299;SDS011;10809;49.476;11.016;2022-11-04T02:44:12;0.60;;;0.60;;
21299;SDS011;10809;49.476;11.016;2022-11-04T02:46:59;1.70;;;0.40;;
21299;SDS011;10809;49.476;11.016;2022-11-04T02:49:37;0.50;;;0.50;;
21299;SDS011;10809;49.476;11.016;2022-11-04T02:52:16;0.87;;;0.50;;
21299;SDS011;10809;49.476;11.016;2022-11-04T02:57:28;0.80;;;0.50;;
21299;SDS011;10809;49.476;11.016;2022-11-04T03:00:03;0.80;;;0.60;;
21299;SDS011;10809;49.476;11.016;2022-11-04T03:02:46;0.73;;;0.57;;
21299;SDS011;10809;49.476;11.016;2022-11-04T03:05:24;0.60;;;0.60;;
21299;SDS011;10809;49.476;11.016;2022-11-04T03:07:57;1.33;;;0.40;;
21299;SDS011;10809;49.476;11.016;2022-11-04T03:10:35;0.50;;;0.50;;
21299;SDS011;10809;49.476;11.016;2022-11-04T03:13:11;0.40;;;0.40;;
21299;SDS011;10809;49.476;11.016;2022-11-04T03:15:47;0.67;;;0.60;;
21299;SDS011;10809;49.476;11.016;2022-11-04T03:18:35;0.60;;;0.60;;
21299;SDS011;10809;49.476;11.016;2022-11-04T03:21:16;0.73;;;0.47;;
21299;SDS011;10809;49.476;11.016;2022-11-04T03:23:49;1.53;;;0.53;;
21299;SDS011;10809;49.476;11.016;2022-11-04T03:32:06;0.60;;;0.60;;
21299;SDS011;10809;49.476;11.016;2022-11-04T03:34:52;1.93;;;0.80;;
21299;SDS011;10809;49.476;11.016;2022-11-04T03:37:22;0.33;;;0.30;;
21299;SDS011;10809;49.476;11.016;2022-11-04T03:39:53;0.77;;;0.57;;
21299;SDS011;10809;49.476;11.016;2022-11-04T03:42:23;0.93;;;0.77;;
21299;SDS011;10809;49.476;11.016;2022-11-04T03:44:55;0.63;;;0.37;;
21299;SDS011;10809;49.476;11.016;2022-11-04T03:47:27;0.60;;;0.60;;
21299;SDS011;10809;49.476;11.016;2022-11-04T03:50:09;1.47;;;0.40;;
21299;SDS011;10809;49.476;11.016;2022-11-04T03:52:49;0.83;;;0.57;;
21299;SDS011;10809;49.476;11.016;2022-11-04T03:55:20;0.47;;;0.40;;
21299;SDS011;10809;49.476;11.016;2022-11-04T04:00:33;0.80;;;0.80;;
21299;SDS011;10809;49.476;11.016;2022-11-04T04:03:14;0.50;;;0.50;;
21299;SDS011;10809;49.476;11.016;2022-11-04T04:06:02;0.57;;;0.40;;
21299;SDS011;10809;49.476;11.016;2022-11-04T04:08:41;0.70;;;0.50;;
21299;SDS011;10809;49.476;11.016;2022-11-04T04:11:20;0.30;;;0.30;;
21299;SDS011;10809;49.476;11.016;2022-11-04T04:14:00;0.50;;;0.43;;
21299;SDS011;10809;49.476;11.016;2022-11-04T04:16:40;0.60;;;0.60;;
21299;SDS011;10809;49.476;11.016;2022-11-04T04:19:20;0.40;;;0.40;;
21299;SDS011;10809;49.476;11.016;2022-11-04T04:21:55;1.07;;;0.90;;
21299;SDS011;10809;49.476;11.016;2022-11-04T04:24:42;1.20;;;0.70;;
21299;SDS011;10809;49.476;11.016;2022-11-04T04:27:34;2.07;;;0.80;;
21299;SDS011;10809;49.476;11.016;2022-11-04T04:30:10;1.33;;;1.00;;
21299;SDS011;10809;49.476;11.016;2022-11-04T04:35:19;0.87;;;0.80;;
21299;SDS011;10809;49.476;11.016;2022-11-04T04:41:16;0.87;;;0.83;;
21299;SDS011;10809;49.476;11.016;2022-11-04T04:44:26;1.43;;;1.17;;
21299;SDS011;10809;49.476;11.016;2022-11-04T04:47:17;0.90;;;0.60;;
21299;SDS011;10809;49.476;11.016;2022-11-04T04:49:51;1.07;;;0.63;;
21299;SDS011;10809;49.476;11.016;2022-11-04T04:52:23;0.70;;;0.50;;
21299;SDS011;10809;49.476;11.016;2022-11-04T04:54:56;2.13;;;0.73;;
21299;SDS011;10809;49.476;11.016;2022-11-04T04:57:26;1.33;;;0.50;;
21299;SDS011;10809;49.476;11.016;2022-11-04T04:59:56;0.57;;;0.57;;
21299;SDS011;10809;49.476;11.016;2022-11-04T05:02:27;0.70;;;0.53;;
21299;SDS011;10809;49.476;11.016;2022-11-04T05:04:57;0.40;;;0.40;;
21299;SDS011;10809;49.476;11.016;2022-11-04T05:07:28;1.03;;;0.50;;
21299;SDS011;10809;49.476;11.016;2022-11-04T05:09:59;1.07;;;0.63;;
21299;SDS011;10809;49.476;11.016;2022-11-04T05:12:29;0.63;;;0.47;;
21299;SDS011;10809;49.476;11.016;2022-11-04T05:15:19;0.43;;;0.43;;
21299;SDS011;10809;49.476;11.016;2022-11-04T05:17:53;1.90;;;0.63;;
21299;SDS011;10809;49.476;11.016;2022-11-04T05:20:25;0.50;;;0.50;;
21299;SDS011;10809;49.476;11.016;2022-11-04T05:22:56;0.83;;;0.70;;
21299;SDS011;10809;49.476;11.016;2022-11-04T05:25:26;0.70;;;0.60;;
21299;SDS011;10809;49.476;11.016;2022-11-04T05:28:00;2.73;;;0.70;;
21299;SDS011;10809;49.476;11.016;2022-11-04T05:30:31;0.60;;;0.57;;
21299;SDS011;10809;49.476;11.016;2022-11-04T05:33:01;0.80;;;0.80;;
21299;SDS011;10809;49.476;11.016;2022-11-04T05:35:32;0.63;;;0.60;;
21299;SDS011;10809;49.476;11.016;2022-11-04T05:38:03;0.60;;;0.60;;
21299;SDS011;10809;49.476;11.016;2022-11-04T05:40:34;0.60;;;0.60;;
21299;SDS011;10809;49.476;11.016;2022-11-04T05:43:04;0.80;;;0.53;;
21299;SDS011;10809;49.476;11.016;2022-11-04T05:45:35;1.07;;;0.60;;
21299;SDS011;10809;49.476;11.016;2022-11-04T05:48:05;0.50;;;0.50;;
21299;SDS011;10809;49.476;11.016;2022-11-04T05:50:35;2.73;;;1.37;;
21299;SDS011;10809;49.476;11.016;2022-11-04T05:53:07;1.73;;;0.80;;
21299;SDS011;10809;49.476;11.016;2022-11-04T05:55:37;0.60;;;0.60;;
21299;SDS011;10809;49.476;11.016;2022-11-04T05:58:08;1.27;;;0.77;;
21299;SDS011;10809;49.476;11.016;2022-11-04T06:00:38;0.77;;;0.70;;
21299;SDS011;10809;49.476;11.016;2022-11-04T06:03:08;0.70;;;0.70;;
21299;SDS011;10809;49.476;11.016;2022-11-04T06:05:39;0.63;;;0.60;;
21299;SDS011;10809;49.476;11.016;2022-11-04T06:08:09;0.57;;;0.47;;
21299;SDS011;10809;49.476;11.016;2022-11-04T06:10:39;2.97;;;1.27;;
21299;SDS011;10809;49.476;11.016;2022-11-04T06:13:12;1.10;;;0.60;;
21299;SDS011;10809;49.476;11.016;2022-11-04T06:15:42;1.43;;;0.93;;
21299;SDS011;10809;49.476;11.016;2022-11-04T06:18:13;0.93;;;0.80;;
21299;SDS011;10809;49.476;11.016;2022-11-04T06:20:43;4.93;;;1.07;;
21299;SDS011;10809;49.476;11.016;2022-11-04T06:23:13;0.60;;;0.60;;
21299;SDS011;10809;49.476;11.016;2022-11-04T06:25:44;1.53;;;1.40;;
21299;SDS011;10809;49.476;11.016;2022-11-04T06:28:14;1.20;;;0.80;;
21299;SDS011;10809;49.476;11.016;2022-11-04T06:30:44;3.03;;;1.00;;
21299;SDS011;10809;49.476;11.016;2022-11-04T06:33:15;1.73;;;0.80;;
21299;SDS011;10809;49.476;11.016;2022-11-04T06:35:45;0.80;;;0.57;;
21299;SDS011;10809;49.476;11.016;2022-11-04T06:38:15;2.93;;;0.70;;
21299;SDS011;10809;49.476;11.016;2022-11-04T06:40:46;1.30;;;0.83;;
21299;SDS011;10809;49.476;11.016;2022-11-04T06:43:16;2.20;;;1.03;;
21299;SDS011;10809;49.476;11.016;2022-11-04T06:45:53;0.73;;;0.50;;
21299;SDS011;10809;49.476;11.016;2022-11-04T06:48:28;2.00;;;1.17;;
21299;SDS011;10809;49.476;11.016;2022-11-04T06:51:02;1.10;;;1.00;;
21299;SDS011;10809;49.476;11.016;2022-11-04T06:53:32;1.00;;;0.87;;
21299;SDS011;10809;49.476;11.016;2022-11-04T06:56:02;0.77;;;0.77;;
21299;SDS011;10809;49.476;11.016;2022-11-04T06:58:33;2.97;;;1.10;;
21299;SDS011;10809;49.476;11.016;2022-11-04T07:01:03;3.63;;;0.80;;
21299;SDS011;10809;49.476;11.016;2022-11-04T07:03:34;1.73;;;0.73;;
21299;SDS011;10809;49.476;11.016;2022-11-04T07:06:05;0.97;;;0.70;;
21299;SDS011;10809;49.476;11.016;2022-11-04T07:08:36;1.23;;;1.00;;
21299;SDS011;10809;49.476;11.016;2022-11-04T07:11:07;2.77;;;0.90;;
21299;SDS011;10809;49.476;11.016;2022-11-04T07:13:37;1.00;;;0.90;;
21299;SDS011;10809;49.476;11.016;2022-11-04T07:16:08;1.23;;;0.90;;
21299;SDS011;10809;49.476;11.016;2022-11-04T07:18:39;3.20;;;0.60;;
21299;SDS011;10809;49.476;11.016;2022-11-04T07:21:09;2.83;;;0.87;;
21299;SDS011;10809;49.476;11.016;2022-11-04T07:23:41;1.13;;;0.87;;
21299;SDS011;10809;49.476;11.016;2022-11-04T07:26:12;1.40;;;1.30;;
21299;SDS011;10809;49.476;11.016;2022-11-04T07:28:42;1.53;;;1.00;;
21299;SDS011;10809;49.476;11.016;2022-11-04T07:31:13;2.67;;;0.87;;
21299;SDS011;10809;49.476;11.016;2022-11-04T07:33:44;1.93;;;0.77;;
21299;SDS011;10809;49.476;11.016;2022-11-04T07:36:18;2.10;;;1.27;;
21299;SDS011;10809;49.476;11.016;2022-11-04T07:38:49;1.43;;;0.67;;
21299;SDS011;10809;49.476;11.016;2022-11-04T07:41:19;0.70;;;0.70;;
21299;SDS011;10809;49.476;11.016;2022-11-04T07:43:51;1.63;;;1.03;;
21299;SDS011;10809;49.476;11.016;2022-11-04T07:46:21;2.47;;;0.90;;
21299;SDS011;10809;49.476;11.016;2022-11-04T07:48:55;2.10;;;1.00;;
21299;SDS011;10809;49.476;11.016;2022-11-04T07:51:26;1.23;;;1.13;;
21299;SDS011;10809;49.476;11.016;2022-11-04T07:53:57;3.37;;;0.90;;
21299;SDS011;10809;49.476;11.016;2022-11-04T07:56:27;2.30;;;1.20;;
21299;SDS011;10809;49.476;11.016;2022-11-04T07:58:58;1.10;;;0.93;;
21299;SDS011;10809;49.476;11.016;2022-11-04T08:01:28;1.83;;;0.87;;
21299;SDS011;10809;49.476;11.016;2022-11-04T08:03:58;1.57;;;0.77;;
21299;SDS011;10809;49.476;11.016;2022-11-04T08:06:29;4.33;;;1.17;;
21299;SDS011;10809;49.476;11.016;2022-11-04T08:08:59;1.70;;;0.77;;
21299;SDS011;10809;49.476;11.016;2022-11-04T08:11:30;1.17;;;0.87;;
21299;SDS011;10809;49.476;11.016;2022-11-04T08:14:01;1.30;;;0.70;;
21299;SDS011;10809;49.476;11.016;2022-11-04T08:16:33;3.50;;;0.93;;
21299;SDS011;10809;49.476;11.016;2022-11-04T08:19:03;2.37;;;0.80;;
21299;SDS011;10809;49.476;11.016;2022-11-04T08:21:34;3.53;;;1.20;;
21299;SDS011;10809;49.476;11.016;2022-11-04T08:24:04;1.13;;;0.90;;
21299;SDS011;10809;49.476;11.016;2022-11-04T08:26:35;1.43;;;0.70;;
21299;SDS011;10809;49.476;11.016;2022-11-04T08:29:05;2.10;;;0.83;;
21299;SDS011;10809;49.476;11.016;2022-11-04T08:31:37;1.03;;;0.60;;
21299;SDS011;10809;49.476;11.016;2022-11-04T08:34:08;2.30;;;0.90;;
21299;SDS011;10809;49.476;11.016;2022-11-04T08:36:39;0.73;;;0.40;;
21299;SDS011;10809;49.476;11.016;2022-11-04T08:39:10;0.37;;;0.37;;
21299;SDS011;10809;49.476;11.016;2022-11-04T08:41:41;2.10;;;0.50;;
21299;SDS011;10809;49.476;11.016;2022-11-04T08:44:14;1.17;;;0.67;;
21299;SDS011;10809;49.476;11.016;2022-11-04T08:46:45;4.70;;;1.00;;
21299;SDS011;10809;49.476;11.016;2022-11-04T08:49:16;4.20;;;0.57;;
21299;SDS011;10809;49.476;11.016;2022-11-04T08:51:47;2.60;;;0.77;;
21299;SDS011;10809;49.476;11.016;2022-11-04T08:54:25;0.40;;;0.40;;
21299;SDS011;10809;49.476;11.016;2022-11-04T08:56:57;1.37;;;0.60;;
21299;SDS011;10809;49.476;11.016;2022-11-04T08:59:27;1.70;;;0.83;;
21299;SDS011;10809;49.476;11.016;2022-11-04T09:01:58;1.20;;;0.70;;
21299;SDS011;10809;49.476;11.016;2022-11-04T09:04:28;1.23;;;0.60;;
21299;SDS011;10809;49.476;11.016;2022-11-04T09:07:00;1.37;;;0.60;;
21299;SDS011;10809;49.476;11.016;2022-11-04T09:09:31;3.33;;;0.90;;
21299;SDS011;10809;49.476;11.016;2022-11-04T09:12:02;2.30;;;0.80;;
21299;SDS011;10809;49.476;11.016;2022-11-04T09:14:32;6.57;;;1.37;;
21299;SDS011;10809;49.476;11.016;2022-11-04T09:17:03;1.07;;;0.60;;
21299;SDS011;10809;49.476;11.016;2022-11-04T09:19:33;3.33;;;0.80;;
21299;SDS011;10809;49.476;11.016;2022-11-04T09:22:03;3.47;;;1.27;;
21299;SDS011;10809;49.476;11.016;2022-11-04T09:24:34;1.67;;;0.90;;
21299;SDS011;10809;49.476;11.016;2022-11-04T09:27:04;2.07;;;0.87;;
21299;SDS011;10809;49.476;11.016;2022-11-04T09:29:35;2.07;;;0.60;;
21299;SDS011;10809;49.476;11.016;2022-11-04T09:32:06;0.77;;;0.57;;
21299;SDS011;10809;49.476;11.016;2022-11-04T09:34:37;4.27;;;1.00;;
21299;SDS011;10809;49.476;11.016;2022-11-04T09:37:07;3.63;;;0.97;;
21299;SDS011;10809;49.476;11.016;2022-11-04T09:39:38;3.63;;;0.77;;
21299;SDS011;10809;49.476;11.016;2022-11-04T09:44:49;1.70;;;1.00;;
21299;SDS011;10809;49.476;11.016;2022-11-04T09:47:25;1.77;;;0.53;;
21299;SDS011;10809;49.476;11.016;2022-11-04T09:49:57;2.77;;;1.00;;
21299;SDS011;10809;49.476;11.016;2022-11-04T09:52:30;1.97;;;0.60;;
21299;SDS011;10809;49.476;11.016;2022-11-04T09:55:23;3.73;;;0.77;;
21299;SDS011;10809;49.476;11.016;2022-11-04T09:57:58;5.00;;;0.77;;
21299;SDS011;10809;49.476;11.016;2022-11-04T10:00:29;1.90;;;1.30;;
21299;SDS011;10809;49.476;11.016;2022-11-04T10:09:04;0.60;;;0.50;;
21299;SDS011;10809;49.476;11.016;2022-11-04T10:17:02;1.23;;;0.67;;
21299;SDS011;10809;49.476;11.016;2022-11-04T10:19:55;1.87;;;0.63;;
21299;SDS011;10809;49.476;11.016;2022-11-04T10:28:43;2.37;;;0.80;;
21299;SDS011;10809;49.476;11.016;2022-11-04T10:31:18;2.00;;;0.60;;
21299;SDS011;10809;49.476;11.016;2022-11-04T10:33:57;0.50;;;0.37;;
21299;SDS011;10809;49.476;11.016;2022-11-04T10:36:32;2.47;;;1.30;;
21299;SDS011;10809;49.476;11.016;2022-11-04T10:39:08;3.53;;;0.63;;
21299;SDS011;10809;49.476;11.016;2022-11-04T10:41:47;2.00;;;0.60;;
21299;SDS011;10809;49.476;11.016;2022-11-04T10:44:25;2.70;;;0.77;;
21299;SDS011;10809;49.476;11.016;2022-11-04T10:49:52;1.87;;;0.60;;
21299;SDS011;10809;49.476;11.016;2022-11-04T10:52:40;1.93;;;0.53;;
21299;SDS011;10809;49.476;11.016;2022-11-04T10:55:13;2.90;;;0.93;;
21299;SDS011;10809;49.476;11.016;2022-11-04T10:57:54;1.70;;;0.73;;
21299;SDS011;10809;49.476;11.016;2022-11-04T11:00:46;0.83;;;0.83;;
21299;SDS011;10809;49.476;11.016;2022-11-04T11:03:22;3.23;;;1.10;;
21299;SDS011;10809;49.476;11.016;2022-11-04T11:05:55;9.57;;;1.23;;
21299;SDS011;10809;49.476;11.016;2022-11-04T11:08:43;1.77;;;0.67;;
21299;SDS011;10809;49.476;11.016;2022-11-04T11:11:14;5.27;;;1.20;;
21299;SDS011;10809;49.476;11.016;2022-11-04T11:13:45;1.87;;;0.67;;
21299;SDS011;10809;49.476;11.016;2022-11-04T11:16:16;2.77;;;0.80;;
21299;SDS011;10809;49.476;11.016;2022-11-04T11:24:25;1.57;;;0.50;;
21299;SDS011;10809;49.476;11.016;2022-11-04T11:27:00;2.40;;;0.60;;
21299;SDS011;10809;49.476;11.016;2022-11-04T11:29:40;1.80;;;0.70;;
21299;SDS011;10809;49.476;11.016;2022-11-04T11:32:30;3.30;;;0.87;;
21299;SDS011;10809;49.476;11.016;2022-11-04T11:35:03;0.87;;;0.77;;
21299;SDS011;10809;49.476;11.016;2022-11-04T11:37:45;0.80;;;0.60;;
21299;SDS011;10809;49.476;11.016;2022-11-04T11:40:27;3.27;;;1.00;;
21299;SDS011;10809;49.476;11.016;2022-11-04T11:43:00;6.20;;;1.17;;
21299;SDS011;10809;49.476;11.016;2022-11-04T11:45:33;0.70;;;0.67;;
21299;SDS011;10809;49.476;11.016;2022-11-04T11:48:11;3.30;;;0.77;;
21299;SDS011;10809;49.476;11.016;2022-11-04T11:51:25;1.17;;;0.70;;
21299;SDS011;10809;49.476;11.016;2022-11-04T11:54:15;2.10;;;0.73;;
21299;SDS011;10809;49.476;11.016;2022-11-04T11:56:56;4.73;;;0.97;;
21299;SDS011;10809;49.476;11.016;2022-11-04T12:00:08;2.83;;;0.90;;
21299;SDS011;10809;49.476;11.016;2022-11-04T12:02:46;4.67;;;2.20;;
21299;SDS011;10809;49.476;11.016;2022-11-04T12:05:35;5.73;;;1.20;;
21299;SDS011;10809;49.476;11.016;2022-11-04T12:08:23;1.73;;;0.80;;
21299;SDS011;10809;49.476;11.016;2022-11-04T12:13:48;1.87;;;0.43;;
21299;SDS011;10809;49.476;11.016;2022-11-04T12:16:30;4.63;;;0.80;;
21299;SDS011;10809;49.476;11.016;2022-11-04T12:19:40;4.17;;;0.60;;
21299;SDS011;10809;49.476;11.016;2022-11-04T12:22:42;1.23;;;0.60;;
21299;SDS011;10809;49.476;11.016;2022-11-04T12:25:22;4.70;;;0.87;;
21299;SDS011;10809;49.476;11.016;2022-11-04T12:28:06;6.13;;;0.87;;
21299;SDS011;10809;49.476;11.016;2022-11-04T12:30:47;3.00;;;0.50;;
21299;SDS011;10809;49.476;11.016;2022-11-04T12:57:57;2.30;;;1.13;;
21299;SDS011;10809;49.476;11.016;2022-11-04T13:00:30;1.63;;;0.57;;
21299;SDS011;10809;49.476;11.016;2022-11-04T13:03:11;3.17;;;0.87;;
21299;SDS011;10809;49.476;11.016;2022-11-04T13:05:57;0.70;;;0.60;;
21299;SDS011;10809;49.476;11.016;2022-11-04T13:11:19;4.27;;;0.70;;
21299;SDS011;10809;49.476;11.016;2022-11-04T13:14:04;3.50;;;1.20;;
21299;SDS011;10809;49.476;11.016;2022-11-04T13:16:40;3.67;;;0.60;;
21299;SDS011;10809;49.476;11.016;2022-11-04T13:20:15;2.00;;;0.83;;
21299;SDS011;10809;49.476;11.016;2022-11-04T13:22:30;1.67;;;0.93;;
21299;SDS011;10809;49.476;11.016;2022-11-04T13:25:18;1.67;;;1.00;;
21299;SDS011;10809;49.476;11.016;2022-11-04T13:27:59;4.77;;;1.23;;
21299;SDS011;10809;49.476;11.016;2022-11-04T13:30:38;4.50;;;1.00;;
21299;SDS011;10809;49.476;11.016;2022-11-04T13:38:38;4.70;;;1.40;;
21299;SDS011;10809;49.476;11.016;2022-11-04T13:43:56;4.10;;;0.87;;
21299;SDS011;10809;49.476;11.016;2022-11-04T13:46:29;1.50;;;0.80;;
21299;SDS011;10809;49.476;11.016;2022-11-04T13:51:36;5.47;;;0.60;;
21299;SDS011;10809;49.476;11.016;2022-11-04T13:54:23;3.10;;;0.70;;
21299;SDS011;10809;49.476;11.016;2022-11-04T13:57:11;1.50;;;1.00;;
21299;SDS011;10809;49.476;11.016;2022-11-04T14:16:08;3.43;;;0.90;;
21299;SDS011;10809;49.476;11.016;2022-11-04T14:18:39;2.13;;;0.70;;
21299;SDS011;10809;49.476;11.016;2022-11-04T14:23:48;1.87;;;0.90;;
21299;SDS011;10809;49.476;11.016;2022-11-04T14:26:54;1.83;;;0.77;;
21299;SDS011;10809;49.476;11.016;2022-11-04T14:29:18;2.80;;;0.83;;
21299;SDS011;10809;49.476;11.016;2022-11-04T14:31:57;4.73;;;0.83;;
21299;SDS011;10809;49.476;11.016;2022-11-04T14:34:32;3.43;;;1.57;;
21299;SDS011;10809;49.476;11.016;2022-11-04T14:39:52;5.37;;;1.13;;
21299;SDS011;10809;49.476;11.016;2022-11-04T14:45:20;2.27;;;1.00;;
21299;SDS011;10809;49.476;11.016;2022-11-04T14:47:54;1.00;;;0.63;;
21299;SDS011;10809;49.476;11.016;2022-11-04T14:50:30;1.93;;;0.80;;
21299;SDS011;10809;49.476;11.016;2022-11-04T14:53:00;5.67;;;1.00;;
21299;SDS011;10809;49.476;11.016;2022-11-04T14:55:34;1.87;;;0.70;;
21299;SDS011;10809;49.476;11.016;2022-11-04T14:58:24;3.80;;;1.10;;
21299;SDS011;10809;49.476;11.016;2022-11-04T15:01:01;5.93;;;1.27;;
21299;SDS011;10809;49.476;11.016;2022-11-04T15:03:34;4.33;;;1.57;;
21299;SDS011;10809;49.476;11.016;2022-11-04T15:06:07;2.60;;;1.27;;
21299;SDS011;10809;49.476;11.016;2022-11-04T15:11:18;1.33;;;1.10;;
21299;SDS011;10809;49.476;11.016;2022-11-04T15:14:15;1.70;;;1.00;;
21299;SDS011;10809;49.476;11.016;2022-11-04T15:16:51;2.70;;;1.10;;
21299;SDS011;10809;49.476;11.016;2022-11-04T15:19:28;2.90;;;1.13;;
21299;SDS011;10809;49.476;11.016;2022-11-04T15:22:04;1.77;;;0.70;;
21299;SDS011;10809;49.476;11.016;2022-11-04T15:24:35;5.90;;;0.80;;
21299;SDS011;10809;49.476;11.016;2022-11-04T15:27:06;2.20;;;0.90;;
21299;SDS011;10809;49.476;11.016;2022-11-04T15:29:56;1.50;;;0.90;;
21299;SDS011;10809;49.476;11.016;2022-11-04T15:32:29;3.37;;;0.80;;
21299;SDS011;10809;49.476;11.016;2022-11-04T15:34:59;3.93;;;1.33;;
21299;SDS011;10809;49.476;11.016;2022-11-04T15:37:31;8.60;;;1.07;;
21299;SDS011;10809;49.476;11.016;2022-11-04T15:40:12;4.53;;;0.90;;
21299;SDS011;10809;49.476;11.016;2022-11-04T15:42:43;3.43;;;0.93;;
21299;SDS011;10809;49.476;11.016;2022-11-04T15:51:09;4.50;;;1.47;;
21299;SDS011;10809;49.476;11.016;2022-11-04T15:53:51;2.47;;;1.07;;
21299;SDS011;10809;49.476;11.016;2022-11-04T15:56:26;3.67;;;1.47;;
21299;SDS011;10809;49.476;11.016;2022-11-04T15:58:58;3.07;;;1.37;;
21299;SDS011;10809;49.476;11.016;2022-11-04T16:01:29;3.67;;;1.63;;
21299;SDS011;10809;49.476;11.016;2022-11-04T16:04:01;2.60;;;1.33;;
21299;SDS011;10809;49.476;11.016;2022-11-04T16:06:39;3.73;;;1.30;;
21299;SDS011;10809;49.476;11.016;2022-11-04T16:09:18;4.17;;;1.30;;
21299;SDS011;10809;49.476;11.016;2022-11-04T16:12:03;3.33;;;1.03;;
21299;SDS011;10809;49.476;11.016;2022-11-04T16:14:48;2.50;;;1.20;;
21299;SDS011;10809;49.476;11.016;2022-11-04T16:17:21;2.60;;;1.90;;
21299;SDS011;10809;49.476;11.016;2022-11-04T16:19:57;5.63;;;1.80;;
21299;SDS011;10809;49.476;11.016;2022-11-04T16:22:34;4.17;;;2.50;;
21299;SDS011;10809;49.476;11.016;2022-11-04T16:25:07;3.90;;;2.13;;
21299;SDS011;10809;49.476;11.016;2022-11-04T16:27:50;11.03;;;4.80;;
21299;SDS011;10809;49.476;11.016;2022-11-04T16:30:21;17.17;;;9.57;;
21299;SDS011;10809;49.476;11.016;2022-11-04T16:32:55;23.23;;;10.37;;
21299;SDS011;10809;49.476;11.016;2022-11-04T16:35:38;23.90;;;11.87;;
21299;SDS011;10809;49.476;11.016;2022-11-04T16:38:11;19.80;;;10.20;;
21299;SDS011;10809;49.476;11.016;2022-11-04T16:40:42;21.03;;;9.57;;
21299;SDS011;10809;49.476;11.016;2022-11-04T16:43:17;16.50;;;8.23;;
21299;SDS011;10809;49.476;11.016;2022-11-04T16:45:48;18.73;;;9.13;;
21299;SDS011;10809;49.476;11.016;2022-11-04T16:48:20;14.27;;;7.33;;
21299;SDS011;10809;49.476;11.016;2022-11-04T16:50:53;17.23;;;8.03;;
21299;SDS011;10809;49.476;11.016;2022-11-04T16:53:23;20.77;;;8.83;;
21299;SDS011;10809;49.476;11.016;2022-11-04T16:55:54;18.20;;;8.30;;
21299;SDS011;10809;49.476;11.016;2022-11-04T16:58:25;16.73;;;7.97;;
21299;SDS011;10809;49.476;11.016;2022-11-04T17:00:57;24.07;;;9.43;;
21299;SDS011;10809;49.476;11.016;2022-11-04T17:03:27;19.07;;;8.00;;
21299;SDS011;10809;49.476;11.016;2022-11-04T17:05:58;18.83;;;7.83;;
21299;SDS011;10809;49.476;11.016;2022-11-04T17:08:28;20.10;;;7.97;;
21299;SDS011;10809;49.476;11.016;2022-11-04T17:10:58;15.00;;;6.87;;
21299;SDS011;10809;49.476;11.016;2022-11-04T17:13:29;19.03;;;7.10;;
21299;SDS011;10809;49.476;11.016;2022-11-04T17:15:59;15.93;;;7.50;;
21299;SDS011;10809;49.476;11.016;2022-11-04T17:18:30;15.10;;;6.57;;
21299;SDS011;10809;49.476;11.016;2022-11-04T17:21:04;12.60;;;6.60;;
21299;SDS011;10809;49.476;11.016;2022-11-04T17:23:36;9.93;;;5.33;;
21299;SDS011;10809;49.476;11.016;2022-11-04T17:26:06;11.07;;;6.07;;
21299;SDS011;10809;49.476;11.016;2022-11-04T17:28:37;11.67;;;5.87;;
21299;SDS011;10809;49.476;11.016;2022-11-04T17:31:08;12.33;;;5.87;;
21299;SDS011;10809;49.476;11.016;2022-11-04T17:33:46;12.13;;;5.47;;
21299;SDS011;10809;49.476;11.016;2022-11-04T17:36:17;11.93;;;5.53;;